Cut, Texas
Current Conditions -  °F | °C
As of 8:35 PM on Thursday 20 Nov 2014 (Local Time) from KDKR Reporting Station
Overcast Overcast  
Wind Chill: 63°   Ceiling: 4800
Heat Index: 63°   Visibility: 10mi
Dew Point: 55°   Wind: 5mph
Humidity: 77%   Direction: 130°SE
Pressure: 30.14"   Gusts: NA
Location:  31.2828°N, 95.4821°W
Report Text: KDKR 210235Z AUTO 13004KT 10SM OVC048 17/13 A3014 RMK AO2
Loading
Personal Weather Stations






























Interactive Weather Map New forecast layout! Learn more

10-Day Weather Forecast

Advertisements
Track Severe Weather on mobile